Time;durP1;ratioP1;P1;durP2;ratioP2;P2;SDS_P1;SDS_P2;PMS_P1;PMS_P2;Temp;Humidity;BMP_temperature;BMP_pressure;BME280_temperature;BME280_humidity;BME280_pressure;Samples;Min_cycle;Max_cycle;Signal;HPM_P1;HPM_P2
2022/04/03 00:01:31;;;;;;;0.10;0.10;;;1.20;99.90;;;;;;4974433;28;20034;-60
2022/04/03 00:03:57;;;;;;;0.03;0.03;;;1.20;99.90;;;;;;4998638;28;20026;-58
2022/04/03 00:06:23;;;;;;;0.10;0.10;;;1.20;99.90;;;;;;5012027;28;20099;-58
2022/04/03 00:08:49;;;;;;;0.10;0.10;;;1.20;99.90;;;;;;5013207;28;20038;-59
2022/04/03 00:11:15;;;;;;;0.00;0.00;;;1.20;99.90;;;;;;5011546;28;20045;-59
2022/04/03 00:13:41;;;;;;;0.10;0.10;;;1.20;99.90;;;;;;5012210;28;20033;-59
2022/04/03 00:16:07;;;;;;;0.10;0.10;;;1.20;99.90;;;;;;5011848;28;20477;-58
2022/04/03 00:18:33;;;;;;;4.40;2.85;;;1.20;99.90;;;;;;5012909;28;20046;-59
2022/04/03 00:21:00;;;;;;;0.10;0.10;;;1.20;99.90;;;;;;5011841;28;20042;-56
2022/04/03 00:23:27;;;;;;;0.00;0.00;;;1.20;99.90;;;;;;5011858;28;20030;-57
2022/04/03 00:25:53;;;;;;;0.10;0.10;;;1.20;99.90;;;;;;5011777;28;20084;-59
2022/04/03 00:28:20;;;;;;;0.10;0.10;;;1.20;99.90;;;;;;5011405;28;20362;-58
2022/04/03 00:30:46;;;;;;;0.63;0.22;;;1.20;99.90;;;;;;5012990;28;20040;-58
2022/04/03 00:33:13;;;;;;;0.28;0.28;;;1.20;99.90;;;;;;5012683;28;20389;-59
2022/04/03 00:35:39;;;;;;;0.10;0.10;;;1.20;99.90;;;;;;5011688;28;20470;-59
2022/04/03 00:38:06;;;;;;;0.10;0.10;;;1.20;99.90;;;;;;5011259;28;20030;-59
2022/04/03 00:40:32;;;;;;;0.10;0.10;;;1.20;99.90;;;;;;5011425;28;20105;-56
2022/04/03 00:42:57;;;;;;;0.80;0.80;;;1.20;99.90;;;;;;5011280;28;20117;-59
2022/04/03 00:45:23;;;;;;;0.22;0.22;;;1.20;99.90;;;;;;5012517;28;20052;-59
2022/04/03 00:47:54;;;;;;;0.17;0.17;;;1.30;99.90;;;;;;5012018;28;20030;-58
2022/04/03 00:50:21;;;;;;;0.10;0.10;;;1.30;99.90;;;;;;5012517;28;20022;-58
2022/04/03 00:52:47;;;;;;;0.38;0.38;;;1.30;99.90;;;;;;5012597;28;20030;-58
2022/04/03 00:55:14;;;;;;;0.10;0.10;;;1.30;99.90;;;;;;5012335;28;20041;-58
2022/04/03 00:57:45;;;;;;;0.10;0.10;;;1.30;99.90;;;;;;5011929;28;20026;-58
2022/04/03 01:00:12;;;;;;;1.52;1.27;;;1.40;99.90;;;;;;5012594;28;20049;-59
2022/04/03 01:02:40;;;;;;;0.10;0.10;;;1.30;99.90;;;;;;5010873;28;20084;-59
2022/04/03 01:05:07;;;;;;;0.70;0.70;;;1.30;99.90;;;;;;4997328;28;20022;-58
2022/04/03 01:07:34;;;;;;;0.13;0.13;;;1.30;99.90;;;;;;4983156;28;20031;-59
2022/04/03 01:10:01;;;;;;;0.00;0.00;;;1.30;99.90;;;;;;4998669;28;20128;-57
2022/04/03 01:12:27;;;;;;;0.10;0.10;;;1.30;99.90;;;;;;4992313;28;20030;-58
2022/04/03 01:14:53;;;;;;;0.10;0.10;;;1.30;99.90;;;;;;4989411;28;20041;-59
2022/04/03 01:17:18;;;;;;;0.03;0.03;;;1.30;99.90;;;;;;4971561;28;20034;-58
2022/04/03 01:19:44;;;;;;;0.05;0.05;;;1.30;99.90;;;;;;4972859;28;20034;-58
2022/04/03 01:22:10;;;;;;;0.10;0.10;;;1.40;99.90;;;;;;4972651;28;20122;-59
2022/04/03 01:24:36;;;;;;;0.10;0.10;;;1.40;99.90;;;;;;4985159;28;20026;-56
2022/04/03 01:27:02;;;;;;;0.25;0.25;;;1.40;99.90;;;;;;5007232;28;20493;-57
2022/04/03 01:29:28;;;;;;;0.10;0.10;;;1.40;99.90;;;;;;4991890;28;20041;-53
2022/04/03 01:31:54;;;;;;;0.20;0.20;;;1.40;99.90;;;;;;4992158;28;20030;-57
2022/04/03 01:34:21;;;;;;;0.00;0.00;;;1.40;99.90;;;;;;4992187;28;20109;-58
2022/04/03 01:36:48;;;;;;;0.00;0.00;;;1.50;99.90;;;;;;4991591;28;20041;-56
2022/04/03 01:39:13;;;;;;;1.10;1.08;;;1.50;99.90;;;;;;4991918;28;20037;-52
2022/04/03 01:41:41;;;;;;;0.10;0.10;;;1.50;99.90;;;;;;4997970;28;20030;-57
2022/04/03 01:44:10;;;;;;;0.25;0.25;;;1.50;99.90;;;;;;5007024;28;20586;-58
2022/04/03 01:46:38;;;;;;;10.80;1.35;;;1.50;99.90;;;;;;4990234;28;20117;-59
2022/04/03 01:49:05;;;;;;;0.10;0.10;;;1.50;99.90;;;;;;5006905;28;20113;-59
2022/04/03 01:51:32;;;;;;;0.30;0.30;;;1.50;99.90;;;;;;5006856;28;20033;-60
2022/04/03 01:53:59;;;;;;;0.05;0.05;;;1.50;99.90;;;;;;4991613;28;20494;-58
2022/04/03 01:56:25;;;;;;;0.00;0.00;;;1.60;99.90;;;;;;4991370;28;20108;-59
2022/04/03 01:58:51;;;;;;;0.00;0.00;;;1.50;99.90;;;;;;5006598;28;20475;-59
2022/04/03 02:01:17;;;;;;;0.55;0.55;;;1.60;99.90;;;;;;4991856;28;20117;-57
2022/04/03 02:03:43;;;;;;;0.25;0.25;;;1.60;99.90;;;;;;4991373;28;20084;-60
2022/04/03 02:06:09;;;;;;;0.10;0.10;;;1.60;99.90;;;;;;5006586;28;20554;-59
2022/04/03 02:08:34;;;;;;;0.35;0.35;;;1.60;99.90;;;;;;4991234;28;20058;-59
2022/04/03 02:11:00;;;;;;;0.20;0.20;;;1.60;99.90;;;;;;4991672;28;20470;-60
2022/04/03 02:13:26;;;;;;;0.00;0.00;;;1.60;99.90;;;;;;4991730;28;20045;-59
2022/04/03 02:15:52;;;;;;;0.10;0.10;;;1.70;99.90;;;;;;4989927;28;20393;-59
2022/04/03 02:18:18;;;;;;;0.00;0.00;;;1.70;99.90;;;;;;5005663;28;20390;-59
2022/04/03 02:20:44;;;;;;;0.10;0.10;;;1.70;99.90;;;;;;4991539;28;20030;-59
2022/04/03 02:23:10;;;;;;;0.10;0.10;;;1.60;99.90;;;;;;4991422;28;20034;-59
2022/04/03 02:25:37;;;;;;;0.10;0.10;;;1.70;99.90;;;;;;4991341;28;20035;-60
2022/04/03 02:28:04;;;;;;;0.10;0.10;;;1.70;99.90;;;;;;5005474;28;20098;-57
2022/04/03 02:30:30;;;;;;;0.17;0.17;;;1.70;99.90;;;;;;4991281;28;20026;-58
2022/04/03 02:32:56;;;;;;;0.40;0.40;;;1.60;99.90;;;;;;5006025;28;20035;-58
2022/04/03 02:35:23;;;;;;;0.10;0.10;;;1.60;99.90;;;;;;4991449;28;20027;-58
2022/04/03 02:37:49;;;;;;;0.10;0.10;;;1.60;99.90;;;;;;5006074;28;20081;-58
2022/04/03 02:40:17;;;;;;;0.10;0.10;;;1.70;99.90;;;;;;4989939;28;20486;-59
2022/04/03 02:42:44;;;;;;;0.10;0.10;;;1.60;99.90;;;;;;4990754;28;20037;-60
2022/04/03 02:45:10;;;;;;;0.10;0.10;;;1.60;99.90;;;;;;4973499;28;20036;-58
2022/04/03 02:47:37;;;;;;;0.43;0.43;;;1.60;99.90;;;;;;4990751;28;20086;-60
2022/04/03 02:50:05;;;;;;;0.73;0.73;;;1.60;99.90;;;;;;4991142;28;20034;-58
2022/04/03 02:52:31;;;;;;;0.10;0.10;;;1.70;99.90;;;;;;4989655;28;20105;-58
2022/04/03 02:54:57;;;;;;;0.15;0.15;;;1.70;99.90;;;;;;4990965;28;20593;-57
2022/04/03 02:57:24;;;;;;;0.10;0.10;;;1.60;99.90;;;;;;5005598;28;20125;-58
2022/04/03 02:59:49;;;;;;;0.10;0.10;;;1.70;99.90;;;;;;4991358;28;20030;-59
2022/04/03 03:02:15;;;;;;;0.00;0.00;;;1.60;99.90;;;;;;4990993;28;20038;-60
2022/04/03 03:04:41;;;;;;;0.75;0.75;;;1.60;99.90;;;;;;4990931;28;20102;-60
2022/04/03 03:07:08;;;;;;;6.03;2.28;;;1.60;99.90;;;;;;4990528;28;20035;-59
2022/04/03 03:09:34;;;;;;;1.33;1.23;;;1.70;99.90;;;;;;4990788;28;20038;-59
2022/04/03 03:12:00;;;;;;;1.25;1.20;;;1.60;99.90;;;;;;4990946;28;20049;-58
2022/04/03 03:14:27;;;;;;;0.10;0.10;;;1.60;99.90;;;;;;4989292;28;20038;-59
2022/04/03 03:16:54;;;;;;;0.90;0.90;;;1.60;99.90;;;;;;4971010;28;20035;-58
2022/04/03 03:19:20;;;;;;;2.83;2.60;;;1.60;99.90;;;;;;4971150;28;20038;-58
2022/04/03 03:21:46;;;;;;;0.10;0.10;;;1.60;99.90;;;;;;4971548;28;20058;-57
2022/04/03 03:24:12;;;;;;;0.32;0.32;;;1.50;99.90;;;;;;4971624;28;20031;-59
2022/04/03 03:26:38;;;;;;;0.10;0.10;;;1.50;99.90;;;;;;4969751;28;20033;-58
2022/04/03 03:29:04;;;;;;;0.10;0.10;;;1.50;99.90;;;;;;4970833;28;20509;-59
2022/04/03 03:31:30;;;;;;;0.00;0.00;;;1.50;99.90;;;;;;4971414;28;20038;-59
2022/04/03 03:33:56;;;;;;;0.10;0.10;;;1.50;99.90;;;;;;4970089;28;20027;-60
2022/04/03 03:36:21;;;;;;;0.00;0.00;;;1.50;99.90;;;;;;4969858;28;20063;-59
2022/04/03 03:38:47;;;;;;;0.10;0.10;;;1.40;99.90;;;;;;4970006;28;20045;-59
2022/04/03 03:41:17;;;;;;;0.10;0.10;;;1.40;99.90;;;;;;4974984;28;20031;-59
2022/04/03 03:43:43;;;;;;;0.10;0.10;;;1.40;99.90;;;;;;4974448;28;20034;-60
2022/04/03 03:46:10;;;;;;;0.10;0.10;;;1.30;99.90;;;;;;4974503;28;20118;-59
2022/04/03 03:48:37;;;;;;;1.20;1.20;;;1.20;99.90;;;;;;4973414;28;20030;-59
2022/04/03 03:51:03;;;;;;;0.10;0.10;;;1.20;99.90;;;;;;4973475;28;20035;-57
2022/04/03 03:53:30;;;;;;;0.45;0.45;;;1.20;99.90;;;;;;4973281;28;20093;-59
2022/04/03 03:55:56;;;;;;;0.10;0.10;;;1.20;99.90;;;;;;4974228;28;20420;-58
2022/04/03 03:58:22;;;;;;;0.13;0.13;;;1.20;99.90;;;;;;4972908;28;20074;-59
2022/04/03 04:00:48;;;;;;;0.20;0.20;;;1.20;99.90;;;;;;4974734;28;20033;-57
2022/04/03 04:03:13;;;;;;;0.10;0.10;;;1.20;99.90;;;;;;4974269;28;20023;-59
2022/04/03 04:05:40;;;;;;;0.10;0.10;;;1.20;99.90;;;;;;4974493;28;20074;-58
2022/04/03 04:08:09;;;;;;;0.00;0.00;;;1.20;99.90;;;;;;4973133;28;20027;-60
2022/04/03 04:10:36;;;;;;;0.10;0.10;;;1.20;99.90;;;;;;4957331;28;20383;-58
2022/04/03 04:13:03;;;;;;;0.13;0.13;;;1.10;99.90;;;;;;4972944;28;20027;-58
2022/04/03 04:15:30;;;;;;;0.10;0.10;;;1.20;99.90;;;;;;4982540;28;20470;-56
2022/04/03 04:17:56;;;;;;;0.10;0.10;;;1.20;99.90;;;;;;5007886;28;20034;-59
2022/04/03 04:20:23;;;;;;;0.10;0.10;;;1.10;99.90;;;;;;4993680;28;20027;-56
2022/04/03 04:22:52;;;;;;;0.10;0.10;;;1.20;99.90;;;;;;4992273;28;20133;-58
2022/04/03 04:25:19;;;;;;;0.17;0.17;;;1.20;99.90;;;;;;5008128;28;20023;-58
2022/04/03 04:27:46;;;;;;;0.15;0.15;;;1.20;99.90;;;;;;5007770;28;20125;-59
2022/04/03 04:30:14;;;;;;;0.10;0.10;;;1.10;99.90;;;;;;4992123;28;20069;-59
2022/04/03 04:32:41;;;;;;;0.10;0.10;;;1.10;99.90;;;;;;5008549;28;20053;-59
2022/04/03 04:35:08;;;;;;;0.10;0.10;;;1.10;99.90;;;;;;4992038;28;20027;-58
2022/04/03 04:37:34;;;;;;;0.10;0.10;;;1.10;99.90;;;;;;5007748;28;20106;-57
2022/04/03 04:40:01;;;;;;;0.00;0.00;;;1.10;99.90;;;;;;4992849;28;20026;-56
2022/04/03 04:42:27;;;;;;;0.10;0.10;;;1.10;99.90;;;;;;4993254;28;20054;-57
2022/04/03 04:44:53;;;;;;;0.10;0.10;;;1.00;99.90;;;;;;4993013;28;20121;-60
2022/04/03 04:47:19;;;;;;;0.10;0.10;;;1.00;99.90;;;;;;5007823;28;20109;-60
2022/04/03 04:49:44;;;;;;;0.00;0.00;;;1.00;99.90;;;;;;4993165;28;20109;-59
2022/04/03 04:52:10;;;;;;;0.10;0.10;;;0.90;99.90;;;;;;4992936;28;20035;-57
2022/04/03 04:54:36;;;;;;;2.30;1.95;;;0.90;99.90;;;;;;4993006;28;20089;-57
2022/04/03 04:57:02;;;;;;;0.10;0.10;;;0.90;99.90;;;;;;4991096;28;20034;-58
2022/04/03 04:59:28;;;;;;;0.10;0.10;;;0.90;99.90;;;;;;4992906;28;20311;-60
2022/04/03 05:01:56;;;;;;;0.10;0.10;;;0.80;99.90;;;;;;4992763;28;20026;-59
2022/04/03 05:04:23;;;;;;;0.43;0.35;;;0.80;99.90;;;;;;4992675;28;20026;-59
2022/04/03 05:06:51;;;;;;;2.17;2.08;;;0.80;99.90;;;;;;4992712;28;20448;-59
2022/04/03 05:09:19;;;;;;;0.52;0.52;;;0.70;99.90;;;;;;5007464;28;20125;-58
2022/04/03 05:11:48;;;;;;;2.17;1.58;;;0.60;99.90;;;;;;4991325;28;20034;-58
2022/04/03 05:14:14;;;;;;;0.10;0.10;;;0.70;99.90;;;;;;4992652;28;20061;-59
2022/04/03 05:16:41;;;;;;;0.35;0.35;;;0.60;99.90;;;;;;4971532;28;20451;-59
2022/04/03 05:19:10;;;;;;;0.70;0.70;;;0.60;99.90;;;;;;4972979;28;20407;-58
2022/04/03 05:21:36;;;;;;;0.20;0.20;;;0.60;99.90;;;;;;4973078;28;20031;-59
2022/04/03 05:24:02;;;;;;;0.45;0.45;;;0.50;99.90;;;;;;4973086;28;20077;-60
2022/04/03 05:26:28;;;;;;;0.03;0.03;;;0.50;99.90;;;;;;4972410;28;20030;-60
2022/04/03 05:28:54;;;;;;;0.10;0.10;;;0.60;99.90;;;;;;4972566;28;20069;-57
2022/04/03 05:31:19;;;;;;;0.10;0.10;;;0.50;99.90;;;;;;4971468;28;20086;-59
2022/04/03 05:33:45;;;;;;;0.10;0.10;;;0.50;99.90;;;;;;4972661;28;20081;-58
2022/04/03 05:36:11;;;;;;;11.50;1.50;;;0.50;99.90;;;;;;4972420;28;20035;-58
2022/04/03 05:38:37;;;;;;;0.13;0.13;;;0.50;99.90;;;;;;4971184;28;20084;-58
2022/04/03 05:41:02;;;;;;;0.10;0.10;;;0.50;99.90;;;;;;4972868;28;20386;-58
2022/04/03 05:43:28;;;;;;;2.72;1.38;;;0.40;99.90;;;;;;4972916;28;20031;-58
2022/04/03 05:45:54;;;;;;;0.10;0.10;;;0.40;99.90;;;;;;4972160;28;20043;-59
2022/04/03 05:48:21;;;;;;;0.35;0.35;;;0.40;99.90;;;;;;4972137;28;20571;-59
2022/04/03 05:50:47;;;;;;;0.20;0.20;;;0.50;99.90;;;;;;4972100;28;20105;-60
2022/04/03 05:53:13;;;;;;;0.10;0.10;;;0.50;99.90;;;;;;4972497;28;20439;-59
2022/04/03 05:55:38;;;;;;;0.98;0.93;;;0.50;99.90;;;;;;4972060;28;20035;-59
2022/04/03 05:58:04;;;;;;;0.20;0.20;;;0.50;99.90;;;;;;4972233;28;20034;-59
2022/04/03 06:00:31;;;;;;;0.10;0.10;;;0.50;99.90;;;;;;4972341;28;20030;-58
2022/04/03 06:03:01;;;;;;;0.20;0.20;;;0.50;99.90;;;;;;4988677;28;20070;-59
2022/04/03 06:05:38;;;;;;;0.10;0.10;;;0.50;99.90;;;;;;4990502;28;20450;-59
2022/04/03 06:08:05;;;;;;;0.17;0.17;;;0.60;99.90;;;;;;4991110;28;20045;-60
2022/04/03 06:10:34;;;;;;;0.28;0.28;;;0.60;99.90;;;;;;4989838;28;20033;-57
2022/04/03 06:13:03;;;;;;;0.10;0.10;;;0.60;99.90;;;;;;4989970;28;20582;-58
2022/04/03 06:15:33;;;;;;;0.10;0.10;;;0.60;99.90;;;;;;4989918;28;20068;-57
2022/04/03 06:18:21;;;;;;;0.20;0.20;;;0.70;99.90;;;;;;4988455;28;20034;-59
2022/04/03 06:20:47;;;;;;;0.32;0.32;;;0.70;99.90;;;;;;4988431;28;20475;-58
2022/04/03 06:23:19;;;;;;;0.10;0.10;;;0.80;99.90;;;;;;4989705;28;20375;-58
2022/04/03 06:25:47;;;;;;;0.10;0.10;;;0.80;99.90;;;;;;4989278;28;20105;-59
2022/04/03 06:28:13;;;;;;;0.00;0.00;;;0.80;99.90;;;;;;4987990;28;20026;-60
2022/04/03 06:30:39;;;;;;;0.10;0.10;;;0.80;99.90;;;;;;4989080;28;20056;-55
2022/04/03 06:33:06;;;;;;;0.45;0.45;;;0.90;99.90;;;;;;4990283;28;20461;-58
2022/04/03 06:35:32;;;;;;;2.13;0.75;;;0.90;99.90;;;;;;4990847;28;20117;-56
2022/04/03 06:37:58;;;;;;;0.10;0.10;;;1.00;99.90;;;;;;4989034;28;20033;-53
2022/04/03 06:40:24;;;;;;;0.15;0.15;;;1.00;99.90;;;;;;4989133;28;20454;-57
2022/04/03 06:42:51;;;;;;;0.65;0.65;;;1.00;99.90;;;;;;4975955;28;20041;-60
2022/04/03 06:45:17;;;;;;;0.00;0.00;;;1.10;99.90;;;;;;4997768;28;20122;-59
2022/04/03 06:47:43;;;;;;;0.15;0.15;;;1.10;99.90;;;;;;4990724;28;20110;-60
2022/04/03 06:50:10;;;;;;;0.30;0.30;;;1.10;99.90;;;;;;4986348;28;20035;-59
2022/04/03 06:52:37;;;;;;;0.10;0.10;;;1.20;99.90;;;;;;4971536;28;20089;-58
2022/04/03 06:55:08;;;;;;;0.20;0.20;;;1.60;99.90;;;;;;4969840;28;20036;-60
2022/04/03 06:57:34;;;;;;;;;;;1.80;99.90;;;;;;4970951;28;20035;-57
2022/04/03 07:00:00;;;;;;;0.10;0.10;;;1.80;99.90;;;;;;4970887;28;20382;-59
2022/04/03 07:02:26;;;;;;;0.00;0.00;;;1.90;99.90;;;;;;4970917;28;20034;-58
2022/04/03 07:04:52;;;;;;;0.20;0.20;;;1.80;99.90;;;;;;4971026;28;20031;-55
2022/04/03 07:07:25;;;;;;;0.20;0.20;;;1.80;99.90;;;;;;4970666;28;20034;-60
2022/04/03 07:09:52;;;;;;;0.13;0.13;;;1.80;99.90;;;;;;4969838;28;20034;-58
2022/04/03 07:12:20;;;;;;;0.10;0.10;;;1.80;99.90;;;;;;4983694;28;20026;-57
2022/04/03 07:14:46;;;;;;;3.00;2.10;;;1.90;99.90;;;;;;4992626;28;20054;-58
2022/04/03 07:17:12;;;;;;;0.20;0.20;;;2.00;99.90;;;;;;4993107;28;20077;-59
2022/04/03 07:19:37;;;;;;;0.10;0.10;;;2.00;99.90;;;;;;4994436;28;20062;-58
2022/04/03 07:22:03;;;;;;;1.30;0.68;;;2.10;99.90;;;;;;4994647;28;20042;-55
2022/04/03 07:24:29;;;;;;;0.00;0.00;;;2.20;99.90;;;;;;4994115;28;20034;-61
2022/04/03 07:26:55;;;;;;;1.38;1.27;;;2.20;99.90;;;;;;4992703;28;20038;-59
2022/04/03 07:29:22;;;;;;;0.20;0.20;;;2.20;99.90;;;;;;4994133;28;20038;-56
2022/04/03 07:31:49;;;;;;;0.20;0.20;;;2.20;99.90;;;;;;4992966;28;20390;-58
2022/04/03 07:34:15;;;;;;;0.73;0.73;;;2.30;99.90;;;;;;4992729;28;20037;-58
2022/04/03 07:36:41;;;;;;;0.88;0.85;;;2.40;99.90;;;;;;4976064;28;20023;-60
2022/04/03 07:39:09;;;;;;;0.30;0.30;;;2.40;99.90;;;;;;4992769;28;20038;-58
2022/04/03 07:41:38;;;;;;;1.13;0.95;;;2.40;99.90;;;;;;4992868;28;20045;-59
2022/04/03 07:44:06;;;;;;;0.10;0.10;;;2.50;99.90;;;;;;4994050;28;20533;-57
2022/04/03 07:46:31;;;;;;;0.40;0.40;;;2.50;99.90;;;;;;4993401;28;20034;-59
2022/04/03 07:48:57;;;;;;;0.32;0.32;;;2.60;99.90;;;;;;4993855;28;20521;-56
2022/04/03 07:51:23;;;;;;;0.25;0.25;;;2.60;99.90;;;;;;4992389;28;20672;-57
2022/04/03 07:53:50;;;;;;;0.20;0.20;;;2.70;99.90;;;;;;4992375;28;20036;-56
2022/04/03 07:56:16;;;;;;;0.10;0.10;;;2.80;99.90;;;;;;4993503;28;20034;-58
2022/04/03 07:58:42;;;;;;;0.10;0.10;;;2.80;99.90;;;;;;4993897;28;20069;-55
2022/04/03 08:01:08;;;;;;;0.10;0.10;;;2.90;99.90;;;;;;4993929;28;20023;-56
2022/04/03 08:03:34;;;;;;;0.00;0.00;;;2.90;99.90;;;;;;4992426;28;20022;-57
2022/04/03 08:05:59;;;;;;;0.10;0.10;;;3.00;99.90;;;;;;4976079;28;20038;-59
2022/04/03 08:08:25;;;;;;;0.10;0.10;;;3.00;99.90;;;;;;4993315;28;20057;-57
2022/04/03 08:10:51;;;;;;;0.30;0.30;;;3.10;99.90;;;;;;4993570;28;20034;-56
2022/04/03 08:13:17;;;;;;;0.57;0.57;;;3.10;99.90;;;;;;4993038;28;20038;-55
2022/04/03 08:15:43;;;;;;;0.10;0.10;;;3.20;99.90;;;;;;4993536;28;20034;-56
2022/04/03 08:18:09;;;;;;;0.10;0.10;;;3.30;99.90;;;;;;4991839;28;20037;-57
2022/04/03 08:20:35;;;;;;;0.73;0.73;;;3.40;99.90;;;;;;4975958;28;20089;-58
2022/04/03 08:23:03;;;;;;;0.10;0.10;;;3.30;99.90;;;;;;4993063;28;20034;-58
2022/04/03 08:25:33;;;;;;;0.10;0.10;;;3.30;99.90;;;;;;4992932;28;20490;-59
2022/04/03 08:28:00;;;;;;;0.73;0.73;;;3.40;99.90;;;;;;4991536;28;20057;-59
2022/04/03 08:30:36;;;;;;;0.10;0.10;;;3.60;99.90;;;;;;4976251;28;20109;-58
2022/04/03 08:33:06;;;;;;;0.30;0.30;;;3.80;99.90;;;;;;4993187;28;20027;-60
2022/04/03 08:35:37;;;;;;;0.05;0.05;;;3.90;99.90;;;;;;4991749;28;20034;-57
2022/04/03 08:38:04;;;;;;;0.28;0.28;;;3.90;99.90;;;;;;4991339;28;20030;-54
2022/04/03 08:40:31;;;;;;;0.40;0.40;;;4.10;99.90;;;;;;4937490;28;20398;-58
2022/04/03 08:42:58;;;;;;;0.70;0.50;;;4.30;99.90;;;;;;4992900;28;20053;-57
2022/04/03 08:45:24;;;;;;;0.10;0.10;;;4.50;99.90;;;;;;4992955;28;20058;-59
2022/04/03 08:47:54;;;;;;;0.05;0.05;;;4.70;99.90;;;;;;4990212;28;20049;-56
2022/04/03 08:50:27;;;;;;;0.00;0.00;;;4.60;99.90;;;;;;4990654;28;20034;-57
2022/04/03 08:52:56;;;;;;;0.10;0.10;;;4.90;99.90;;;;;;4972496;28;20166;-56
2022/04/03 08:55:22;;;;;;;0.00;0.00;;;5.20;99.90;;;;;;4973196;28;20509;-59
2022/04/03 08:57:48;;;;;;;0.00;0.00;;;5.50;99.50;;;;;;4971352;28;20034;-57
2022/04/03 09:00:15;;;;;;;0.10;0.10;;;5.70;98.90;;;;;;4971992;28;20567;-58
2022/04/03 09:02:45;;;;;;;0.00;0.00;;;5.70;99.30;;;;;;4974777;28;20045;-58
2022/04/03 09:05:11;;;;;;;0.10;0.10;;;5.80;97.90;;;;;;4978139;28;20050;-56
2022/04/03 09:07:37;;;;;;;0.85;0.85;;;5.90;98.30;;;;;;4971875;28;20030;-58
2022/04/03 09:10:16;;;;;;;0.00;0.00;;;5.80;97.80;;;;;;4972912;28;20039;-57
2022/04/03 09:12:50;;;;;;;0.00;0.00;;;5.60;98.10;;;;;;4989040;28;20069;-59
2022/04/03 09:15:19;;;;;;;0.00;0.00;;;5.40;97.20;;;;;;4992554;28;20508;-57
2022/04/03 09:17:49;;;;;;;0.05;0.05;;;5.30;97.20;;;;;;5006914;28;20038;-59
2022/04/03 09:20:19;;;;;;;0.20;0.20;;;5.30;96.20;;;;;;4992298;28;20385;-58
2022/04/03 09:22:50;;;;;;;0.43;0.43;;;5.20;95.90;;;;;;4992035;28;20030;-55
2022/04/03 09:25:22;;;;;;;0.10;0.10;;;5.00;96.40;;;;;;4991996;28;20026;-58
2022/04/03 09:27:51;;;;;;;0.00;0.00;;;4.90;95.30;;;;;;4991754;28;20042;-55
2022/04/03 09:30:21;;;;;;;0.60;0.60;;;4.80;95.50;;;;;;5006810;28;20513;-56
2022/04/03 09:32:55;;;;;;;0.00;0.00;;;4.80;95.80;;;;;;5006767;28;20034;-54
2022/04/03 09:35:24;;;;;;;0.75;0.50;;;4.70;96.40;;;;;;5007340;28;20026;-57
2022/04/03 09:38:14;;;;;;;0.00;0.00;;;4.70;96.50;;;;;;5005528;28;20379;-56
2022/04/03 09:40:47;;;;;;;0.10;0.10;;;4.70;96.10;;;;;;5007121;28;20089;-59
2022/04/03 09:43:35;;;;;;;0.10;0.10;;;4.60;96.20;;;;;;4972389;28;20026;-57
2022/04/03 09:46:06;;;;;;;0.00;0.00;;;4.60;96.10;;;;;;4986139;28;20522;-58
2022/04/03 09:48:39;;;;;;;0.10;0.10;;;4.60;96.40;;;;;;4972075;28;20035;-55
2022/04/03 09:51:27;;;;;;;0.08;0.08;;;4.60;97.00;;;;;;4972596;28;20038;-57
2022/04/03 09:54:00;;;;;;;0.28;0.28;;;4.70;96.60;;;;;;4986091;28;20475;-56
2022/04/03 09:56:34;;;;;;;0.00;0.00;;;4.80;96.00;;;;;;4971783;28;20121;-56
2022/04/03 09:59:03;;;;;;;0.00;0.00;;;4.60;94.10;;;;;;4972327;28;20031;-58
2022/04/03 10:01:42;;;;;;;0.10;0.10;;;4.70;93.90;;;;;;4971004;28;20049;-60
2022/04/03 10:04:14;;;;;;;0.85;0.85;;;4.90;94.30;;;;;;4971926;28;20117;-58
2022/04/03 10:06:41;;;;;;;0.10;0.10;;;4.90;94.70;;;;;;4986418;28;20034;-59
2022/04/03 10:09:11;;;;;;;0.10;0.10;;;4.70;94.00;;;;;;4986568;28;20479;-58
2022/04/03 10:11:38;;;;;;;0.75;0.52;;;4.90;93.30;;;;;;4990239;28;20482;-59
2022/04/03 10:14:06;;;;;;;0.28;0.28;;;4.90;93.10;;;;;;5005875;28;20566;-59
2022/04/03 10:16:32;;;;;;;0.10;0.10;;;5.00;93.00;;;;;;4990512;28;20117;-56
2022/04/03 10:18:58;;;;;;;0.00;0.00;;;5.10;92.00;;;;;;4990161;28;20490;-56
2022/04/03 10:21:49;;;;;;;0.10;0.10;;;5.00;92.00;;;;;;5006152;28;20034;-57
2022/04/03 10:24:29;;;;;;;0.32;0.32;;;5.00;91.60;;;;;;5006277;28;20406;-58
2022/04/03 10:27:06;;;;;;;0.00;0.00;;;5.10;91.00;;;;;;5004917;28;20045;-58
2022/04/03 10:29:37;;;;;;;0.00;0.00;;;5.30;90.70;;;;;;4957940;28;20069;-59
2022/04/03 10:32:04;;;;;;;0.28;0.28;;;5.50;90.60;;;;;;4978577;28;20041;-59
2022/04/03 10:34:30;;;;;;;0.00;0.00;;;5.60;91.40;;;;;;4963472;28;20211;-58
2022/04/03 10:36:56;;;;;;;0.00;0.00;;;5.80;88.80;;;;;;4960061;28;20048;-60
2022/04/03 10:39:28;;;;;;;0.65;0.65;;;6.20;90.20;;;;;;4954114;28;20038;-59
2022/04/03 10:42:24;;;;;;;0.00;0.00;;;6.40;89.70;;;;;;4942493;28;20077;-58
2022/04/03 10:45:12;;;;;;;0.08;0.08;;;6.40;85.60;;;;;;4963793;28;20065;-56
2022/04/03 10:47:46;;;;;;;0.00;0.00;;;6.20;83.20;;;;;;4962519;28;20165;-58
2022/04/03 10:50:13;;;;;;;0.10;0.10;;;5.80;84.40;;;;;;4970742;28;20529;-60
2022/04/03 10:52:42;;;;;;;0.00;0.00;;;5.80;85.80;;;;;;4968756;28;20149;-59
2022/04/03 10:55:25;;;;;;;0.00;0.00;;;5.90;85.00;;;;;;4960796;28;20438;-57
2022/04/03 10:58:03;;;;;;;0.00;0.00;;;5.60;82.70;;;;;;4957239;28;20038;-57
2022/04/03 11:00:34;;;;;;;3.10;0.50;;;5.90;81.20;;;;;;4964103;28;20037;-59
2022/04/03 11:03:28;;;;;;;0.00;0.00;;;5.90;80.80;;;;;;4971490;28;20104;-59
2022/04/03 11:05:54;;;;;;;0.00;0.00;;;6.00;80.40;;;;;;4970626;28;20042;-60
2022/04/03 11:08:53;;;;;;;0.00;0.00;;;6.00;79.50;;;;;;4970766;28;20034;-60
2022/04/03 11:11:40;;;;;;;0.10;0.10;;;6.00;79.70;;;;;;4965540;28;20538;-60
2022/04/03 11:14:09;;;;;;;0.00;0.00;;;5.70;82.70;;;;;;4964536;28;20038;-60
2022/04/03 11:16:55;;;;;;;0.00;0.00;;;5.80;82.20;;;;;;4959633;28;20048;-59
2022/04/03 11:19:45;;;;;;;0.20;0.20;;;5.50;80.50;;;;;;5001379;28;20025;-60
2022/04/03 11:22:17;;;;;;;0.35;0.20;;;5.80;82.20;;;;;;5001764;28;20023;-60
2022/04/03 11:24:44;;;;;;;0.03;0.03;;;6.00;77.20;;;;;;4985272;28;20041;-60
2022/04/03 11:27:12;;;;;;;0.00;0.00;;;6.00;77.90;;;;;;4976033;28;20034;-60
2022/04/03 11:29:38;;;;;;;0.10;0.10;;;6.10;77.70;;;;;;4975961;28;20046;-61
2022/04/03 11:32:08;;;;;;;1.08;1.05;;;6.30;77.20;;;;;;4977803;28;20041;-60
2022/04/03 11:34:37;;;;;;;0.00;0.00;;;6.40;76.50;;;;;;4976216;28;20117;-60
2022/04/03 11:37:05;;;;;;;0.00;0.00;;;6.50;74.20;;;;;;4977445;28;20082;-60
2022/04/03 11:39:39;;;;;;;0.10;0.10;;;6.60;73.70;;;;;;4976210;28;20033;-60
2022/04/03 11:42:09;;;;;;;0.00;0.00;;;6.80;70.50;;;;;;4987255;28;20491;-64
2022/04/03 11:44:36;;;;;;;0.10;0.10;;;7.10;69.60;;;;;;4976047;28;20037;-57
2022/04/03 11:47:05;;;;;;;0.00;0.00;;;7.50;68.70;;;;;;4959674;28;20109;-60
2022/04/03 11:49:34;;;;;;;0.00;0.00;;;7.80;64.60;;;;;;4975870;28;20483;-58
2022/04/03 11:52:06;;;;;;;0.13;0.13;;;7.90;65.30;;;;;;4977359;28;20185;-63
2022/04/03 11:54:33;;;;;;;0.10;0.10;;;8.30;69.30;;;;;;4976173;28;20038;-63
2022/04/03 11:57:02;;;;;;;0.10;0.10;;;8.50;62.70;;;;;;4977387;28;20042;-66
2022/04/03 11:59:29;;;;;;;0.17;0.17;;;8.00;61.10;;;;;;4992401;28;20156;-63
2022/04/03 12:01:55;;;;;;;0.00;0.00;;;7.70;64.10;;;;;;4990024;28;20050;-63
2022/04/03 12:04:22;;;;;;;0.00;0.00;;;7.70;65.00;;;;;;4984031;28;20090;-63
2022/04/03 12:07:00;;;;;;;0.10;0.10;;;8.30;62.90;;;;;;4991940;28;20033;-63
2022/04/03 12:09:29;;;;;;;0.00;0.00;;;8.00;64.90;;;;;;4993607;28;20161;-63
2022/04/03 12:11:56;;;;;;;0.00;0.00;;;8.30;64.00;;;;;;4993391;28;20652;-63
2022/04/03 12:14:31;;;;;;;0.00;0.00;;;9.40;61.90;;;;;;4993214;28;20117;-63
2022/04/03 12:17:03;;;;;;;0.00;0.00;;;9.60;60.00;;;;;;4993312;28;20043;-62
2022/04/03 12:19:42;;;;;;;0.00;0.00;;;9.30;63.30;;;;;;4991939;28;20380;-63
2022/04/03 12:22:10;;;;;;;0.10;0.10;;;10.00;62.20;;;;;;4988018;28;20552;-64
2022/04/03 12:24:38;;;;;;;0.20;0.20;;;10.80;58.90;;;;;;4972634;28;20166;-63
2022/04/03 12:27:12;;;;;;;0.20;0.20;;;11.10;61.40;;;;;;4972057;28;20517;-62
2022/04/03 12:29:39;;;;;;;0.00;0.00;;;12.50;58.90;;;;;;4973325;28;20038;-63
2022/04/03 12:32:10;;;;;;;0.00;0.00;;;13.20;55.60;;;;;;4972721;28;20177;-62
2022/04/03 12:34:39;;;;;;;1.05;1.00;;;13.90;50.70;;;;;;4973574;28;20085;-60
2022/04/03 12:37:06;;;;;;;0.00;0.00;;;14.60;51.60;;;;;;4971709;28;20042;-62
2022/04/03 12:40:11;;;;;;;0.10;0.10;;;14.10;46.40;;;;;;4973671;28;20035;-62
2022/04/03 12:42:41;;;;;;;0.00;0.00;;;13.60;45.40;;;;;;4980204;28;20046;-61
2022/04/03 12:45:19;;;;;;;0.00;0.00;;;11.50;48.50;;;;;;4989082;28;20401;-61
2022/04/03 12:48:03;;;;;;;0.35;0.25;;;11.80;50.70;;;;;;4986925;28;20525;-61
2022/04/03 12:50:41;;;;;;;0.38;0.38;;;10.90;48.50;;;;;;4983927;28;20458;-61
2022/04/03 12:53:13;;;;;;;0.00;0.00;;;8.90;52.10;;;;;;4981985;28;20085;-61
2022/04/03 12:55:48;;;;;;;0.00;0.00;;;10.30;52.00;;;;;;4971708;28;20038;-60
2022/04/03 12:58:28;;;;;;;0.65;0.65;;;11.50;53.00;;;;;;4971709;28;20094;-57
2022/04/03 13:01:07;;;;;;;0.00;0.00;;;9.80;51.20;;;;;;4972089;28;20065;-60
2022/04/03 13:03:51;;;;;;;0.25;0.25;;;9.90;54.20;;;;;;4973405;28;20578;-59
2022/04/03 13:06:28;;;;;;;0.00;0.00;;;9.90;52.50;;;;;;4972172;28;20049;-60